createdAt,value
2018-02-10T00:00:31.623Z,101241.34
2018-02-10T00:02:58.898Z,101240.80
2018-02-10T00:05:26.663Z,101241.34
2018-02-10T00:07:54.382Z,101239.19
2018-02-10T00:10:21.723Z,101244.45
2018-02-10T00:12:49.352Z,101240.69
2018-02-10T00:15:16.724Z,101238.78
2018-02-10T00:17:44.360Z,101234.32
2018-02-10T00:20:11.732Z,101230.66
2018-02-10T00:22:39.237Z,101245.84
2018-02-10T00:25:06.707Z,101247.86
2018-02-10T00:27:34.318Z,101250.02
2018-02-10T00:30:01.747Z,101251.77
2018-02-10T00:32:29.643Z,101246.39
2018-02-10T00:34:57.206Z,101240.83
2018-02-10T00:37:24.636Z,101234.61
2018-02-10T00:39:52.219Z,101233.00
2018-02-10T00:42:19.606Z,101228.36
2018-02-10T00:44:46.816Z,101232.56
2018-02-10T00:47:14.470Z,101231.32
2018-02-10T00:49:41.700Z,101237.83
2018-02-10T00:52:09.326Z,101241.34
2018-02-10T00:54:36.721Z,101237.14
2018-02-10T00:57:04.348Z,101235.12
2018-02-10T00:59:31.650Z,101233.52
2018-02-10T01:01:59.200Z,101230.26
2018-02-10T01:04:26.647Z,101233.66
2018-02-10T01:06:53.916Z,101223.48
2018-02-10T01:09:21.505Z,101215.59
2018-02-10T01:11:48.721Z,101212.78
2018-02-10T01:14:16.408Z,101204.12
2018-02-10T01:16:43.670Z,101198.86
2018-02-10T01:19:11.207Z,101201.42
2018-02-10T01:21:38.714Z,101200.51
2018-02-10T01:24:06.533Z,101205.05
2018-02-10T01:26:33.769Z,101201.14
2018-02-10T01:29:01.362Z,101195.18
2018-02-10T01:31:28.719Z,101197.77
2018-02-10T01:33:56.230Z,101201.02
2018-02-10T01:36:23.719Z,101206.03
2018-02-10T01:38:51.238Z,101203.88
2018-02-10T01:41:18.667Z,101206.30
2018-02-10T01:43:45.915Z,101207.13
2018-02-10T01:46:13.589Z,101199.80
2018-02-10T01:48:40.731Z,101193.81
2018-02-10T01:51:08.348Z,101193.51
2018-02-10T01:53:35.756Z,101187.44
2018-02-10T01:56:03.365Z,101190.96
2018-02-10T01:58:30.772Z,101192.06
2018-02-10T02:00:58.446Z,101184.36
2018-02-10T02:03:25.762Z,101178.69
2018-02-10T02:05:53.614Z,101182.77
2018-02-10T02:08:21.219Z,101172.74
2018-02-10T02:10:48.629Z,101176.52
2018-02-10T02:13:16.200Z,101180.72
2018-02-10T02:15:43.654Z,101180.18
2018-02-10T02:18:11.306Z,101180.73
2018-02-10T02:20:38.710Z,101177.88
2018-02-10T02:23:06.362Z,101165.95
2018-02-10T02:25:33.746Z,101172.20
2018-02-10T02:28:01.348Z,101169.05
2018-02-10T02:30:28.731Z,101184.66
2018-02-10T02:32:56.325Z,101184.92
2018-02-10T02:35:23.704Z,101192.75
2018-02-10T02:37:51.407Z,101195.34
2018-02-10T02:40:18.730Z,101192.89
2018-02-10T02:42:46.328Z,101197.36
2018-02-10T02:45:13.739Z,101191.03
2018-02-10T02:47:41.327Z,101193.19
2018-02-10T02:50:08.756Z,101187.89
2018-02-10T02:52:36.320Z,101193.16
2018-02-10T02:55:03.747Z,101201.55
2018-02-10T02:57:31.389Z,101194.38
2018-02-10T02:59:58.756Z,101196.27
2018-02-10T03:02:26.637Z,101201.03
2018-02-10T03:04:53.905Z,101197.62
2018-02-10T03:07:21.647Z,101201.98
2018-02-10T03:09:49.242Z,101211.45
2018-02-10T03:12:16.704Z,101214.27
2018-02-10T03:14:44.380Z,101211.45
2018-02-10T03:17:11.683Z,101219.72
2018-02-10T03:19:39.224Z,101225.94
2018-02-10T03:22:06.693Z,101221.47
2018-02-10T03:24:34.236Z,101218.62
2018-02-10T03:27:01.710Z,101205.78
2018-02-10T03:32:03.654Z,101198.17
2018-02-10T03:34:30.916Z,101193.83
2018-02-10T03:36:58.654Z,101192.36
2018-02-10T03:39:26.039Z,101192.06
2018-02-10T03:41:53.646Z,101189.66
2018-02-10T03:44:21.363Z,101196.97
2018-02-10T03:46:48.773Z,101193.56
2018-02-10T03:49:16.589Z,101195.61
2018-02-10T03:51:43.737Z,101198.58
2018-02-10T03:54:11.378Z,101206.01
2018-02-10T03:56:38.764Z,101216.98
2018-02-10T03:59:06.567Z,101215.08
2018-02-10T04:01:33.773Z,101217.41
2018-02-10T04:04:01.690Z,101216.72
2018-02-10T04:06:29.289Z,101221.62
2018-02-10T04:08:56.733Z,101225.25
2018-02-10T04:11:24.354Z,101225.68
2018-02-10T04:13:51.768Z,101214.16
2018-02-10T04:16:19.665Z,101211.31
2018-02-10T04:18:46.902Z,101208.20
2018-02-10T04:21:14.584Z,101203.98
2018-02-10T04:23:41.682Z,101205.48
2018-02-10T04:26:09.234Z,101210.23
2018-02-10T04:28:36.716Z,101216.05
2018-02-10T04:31:04.315Z,101206.17
2018-02-10T04:33:31.702Z,101211.70
2018-02-10T04:35:59.190Z,101204.13
2018-02-10T04:38:39.608Z,101205.89
2018-02-10T04:41:06.788Z,101202.92
2018-02-10T04:43:34.370Z,101200.61
2018-02-10T04:46:01.712Z,101197.89
2018-02-10T04:48:29.359Z,101196.94
2018-02-10T04:50:56.683Z,101199.25
2018-02-10T04:53:24.246Z,101193.98
2018-02-10T04:55:51.660Z,101190.34
2018-02-10T04:58:19.254Z,101187.48
2018-02-10T05:00:46.703Z,101191.12
2018-02-10T05:03:14.362Z,101182.20
2018-02-10T05:05:41.732Z,101179.92
2018-02-10T05:08:09.246Z,101168.41
2018-02-10T05:10:36.713Z,101169.35
2018-02-10T05:13:04.350Z,101181.67
2018-02-10T05:15:31.744Z,101179.11
2018-02-10T05:17:59.376Z,101185.33
2018-02-10T05:20:26.703Z,101181.53
2018-02-10T05:22:54.242Z,101182.73
2018-02-10T05:25:21.647Z,101186.56
2018-02-10T05:27:49.271Z,101196.70
2018-02-10T05:30:16.695Z,101192.50
2018-02-10T05:32:44.180Z,101200.62
2018-02-10T05:35:11.663Z,101194.41
2018-02-10T05:37:38.906Z,101198.44
2018-02-10T05:40:06.587Z,101191.41
2018-02-10T05:42:33.755Z,101193.42
2018-02-10T05:45:01.388Z,101192.77
2018-02-10T05:47:28.708Z,101188.95
2018-02-10T05:49:56.225Z,101183.03
2018-02-10T05:52:23.618Z,101188.30
2018-02-10T05:54:50.893Z,101190.05
2018-02-10T05:57:18.600Z,101185.73
2018-02-10T05:59:45.782Z,101182.73
2018-02-10T06:04:35.616Z,101187.34
2018-02-10T06:07:02.797Z,101191.00
2018-02-10T06:09:30.378Z,101197.48
2018-02-10T06:11:57.756Z,101201.69
2018-02-10T06:14:25.390Z,101212.52
2018-02-10T06:17:16.737Z,101219.43
2018-02-10T06:19:44.343Z,101221.33
2018-02-10T06:22:11.695Z,101211.16
2018-02-10T06:24:39.391Z,101196.56
2018-02-10T06:27:06.768Z,101198.98
2018-02-10T06:29:34.309Z,101193.97
2018-02-10T06:32:01.788Z,101199.67
2018-02-10T06:34:29.564Z,101198.32
2018-02-10T06:36:56.747Z,101195.47
2018-02-10T06:39:24.434Z,101194.11
2018-02-10T06:41:51.772Z,101186.40
2018-02-10T06:44:19.663Z,101192.21
2018-02-10T06:46:47.354Z,101195.73
2018-02-10T06:49:14.759Z,101185.59
2018-02-10T06:51:42.620Z,101187.48
2018-02-10T06:54:09.913Z,101186.52
2018-02-10T06:56:37.737Z,101199.25
2018-02-10T06:59:05.356Z,101206.84
2018-02-10T07:01:32.788Z,101210.39
2018-02-10T07:04:00.660Z,101205.63
2018-02-10T07:06:28.350Z,101205.48
2018-02-10T07:08:55.803Z,101199.27
2018-02-10T07:11:23.766Z,101201.46
2018-02-10T07:13:51.759Z,101205.09
2018-02-10T07:16:19.659Z,101205.48
2018-02-10T07:18:47.358Z,101209.81
2018-02-10T07:21:14.763Z,101212.38
2018-02-10T07:23:42.590Z,101214.56
2018-02-10T07:26:09.806Z,101208.31
2018-02-10T07:28:37.712Z,101211.85
2018-02-10T07:31:05.416Z,101211.58
2018-02-10T07:33:32.776Z,101212.09
2018-02-10T07:36:00.683Z,101212.22
2018-02-10T07:38:28.188Z,101214.53
2018-02-10T07:40:55.638Z,101208.81
2018-02-10T07:43:23.238Z,101216.00
2018-02-10T07:45:50.630Z,101221.72
2018-02-10T07:48:17.915Z,101226.89
2018-02-10T07:50:45.675Z,101217.41
2018-02-10T07:53:13.324Z,101207.64
2018-02-10T07:55:40.798Z,101197.91
2018-02-10T07:58:08.704Z,101193.05
2018-02-10T08:00:36.253Z,101196.56
2018-02-10T08:03:03.698Z,101189.79
2018-02-10T08:05:31.172Z,101183.97
2018-02-10T08:07:58.632Z,101188.43
2018-02-10T08:10:26.198Z,101188.27
2018-02-10T08:12:53.681Z,101187.31
2018-02-10T08:15:21.216Z,101189.30
2018-02-10T08:17:48.678Z,101188.89
2018-02-10T08:20:16.236Z,101199.58
2018-02-10T08:22:43.696Z,101203.13
2018-02-10T08:25:11.343Z,101193.66
2018-02-10T08:27:38.733Z,101190.41
2018-02-10T08:30:06.354Z,101192.06
2018-02-10T08:32:33.671Z,101200.59
2018-02-10T08:35:01.283Z,101199.24
2018-02-10T08:37:28.715Z,101196.80
2018-02-10T08:39:56.327Z,101192.19
2018-02-10T08:42:23.726Z,101192.33
2018-02-10T08:44:51.346Z,101200.46
2018-02-10T08:47:18.746Z,101198.45
2018-02-10T08:49:46.417Z,101195.59
2018-02-10T08:52:13.712Z,101195.34
2018-02-10T08:54:41.215Z,101195.17
2018-02-10T08:57:08.685Z,101199.09
2018-02-10T08:59:36.222Z,101194.88
2018-02-10T09:02:03.715Z,101186.20
2018-02-10T09:04:31.224Z,101193.27
2018-02-10T09:06:58.675Z,101181.48
2018-02-10T09:09:26.237Z,101177.67
2018-02-10T09:11:53.872Z,101172.23
2018-02-10T09:14:21.591Z,101169.28
2018-02-10T09:16:48.801Z,101164.02
2018-02-10T09:19:16.638Z,101156.52
2018-02-10T09:21:43.808Z,101162.72
2018-02-10T09:24:11.386Z,101159.61
2018-02-10T09:29:18.578Z,101162.22
2018-02-10T09:31:45.692Z,101146.02
2018-02-10T09:34:13.230Z,101141.64
2018-02-10T09:36:40.740Z,101140.69
2018-02-10T09:39:08.472Z,101133.66
2018-02-10T09:41:35.692Z,101133.79
2018-02-10T09:44:02.999Z,101136.05
2018-02-10T09:46:30.563Z,101133.89
2018-02-10T09:48:57.725Z,101122.90
2018-02-10T09:51:25.334Z,101118.67
2018-02-10T09:53:52.722Z,101122.62
2018-02-10T09:56:20.346Z,101115.96
2018-02-10T09:58:47.694Z,101120.72
2018-02-10T10:01:15.200Z,101116.69
2018-02-10T10:03:42.600Z,101119.97
2018-02-10T10:06:09.715Z,101117.82
2018-02-10T10:08:37.193Z,101117.96
2018-02-10T10:11:04.642Z,101117.01
2018-02-10T10:13:31.843Z,101114.41
2018-02-10T10:15:59.608Z,101112.80
2018-02-10T10:18:26.897Z,101111.20
2018-02-10T10:20:54.636Z,101103.33
2018-02-10T10:23:22.132Z,101107.27
2018-02-10T10:25:49.641Z,101102.80
2018-02-10T10:28:17.209Z,101093.20
2018-02-10T10:30:44.600Z,101093.71
2018-02-10T10:33:11.769Z,101083.78
2018-02-10T10:35:39.588Z,101082.02
2018-02-10T10:38:06.687Z,101077.39
2018-02-10T10:40:34.230Z,101071.84
2018-02-10T10:43:01.709Z,101073.19
2018-02-10T10:45:29.080Z,101072.79
2018-02-10T10:47:56.615Z,101066.98
2018-02-10T10:50:23.904Z,101058.06
2018-02-10T10:52:51.474Z,101049.80
2018-02-10T10:55:18.736Z,101040.89
2018-02-10T11:00:26.688Z,101037.70
2018-02-10T11:04:59.562Z,101029.95
2018-02-10T11:07:26.749Z,101032.11
2018-02-10T11:09:54.377Z,101028.83
2018-02-10T11:12:21.706Z,101021.34
2018-02-10T11:14:49.199Z,101020.67
2018-02-10T11:17:16.643Z,101026.35
2018-02-10T11:19:43.834Z,101024.75
2018-02-10T11:22:11.615Z,101023.28
2018-02-10T11:24:38.810Z,101025.41
2018-02-10T11:27:06.585Z,101014.23
2018-02-10T11:29:33.728Z,101015.36
2018-02-10T11:32:01.339Z,101011.33
2018-02-10T11:34:28.653Z,101005.66
2018-02-10T11:36:56.237Z,100999.95
2018-02-10T11:39:23.646Z,100997.81
2018-02-10T11:41:50.937Z,101003.52
2018-02-10T11:44:18.566Z,100997.13
2018-02-10T11:46:45.696Z,100997.23
2018-02-10T11:49:12.983Z,100989.94
2018-02-10T11:51:40.483Z,100987.84
2018-02-10T11:54:07.680Z,100981.08
2018-02-10T11:56:35.348Z,100978.28
2018-02-10T11:59:02.686Z,100968.20
2018-02-10T12:01:30.227Z,100974.06
2018-02-10T12:03:57.649Z,100978.80
2018-02-10T12:06:25.197Z,100971.11
2018-02-10T12:08:52.620Z,100979.80
2018-02-10T12:11:19.922Z,100981.91
2018-02-10T12:13:47.575Z,100977.41
2018-02-10T12:16:14.692Z,100975.06
2018-02-10T12:18:42.229Z,100974.39
2018-02-10T12:21:09.641Z,100970.34
2018-02-10T12:23:37.236Z,100967.69
2018-02-10T12:26:04.695Z,100959.31
2018-02-10T12:28:32.624Z,100964.39
2018-02-10T12:30:59.878Z,100950.47
2018-02-10T12:33:27.608Z,100953.23
2018-02-10T12:35:54.934Z,100946.94
2018-02-10T12:38:22.592Z,100939.68
2018-02-10T12:40:49.709Z,100932.08
2018-02-10T12:43:17.033Z,100932.84
2018-02-10T12:45:44.592Z,100922.12
2018-02-10T12:48:11.687Z,100923.59
2018-02-10T12:50:38.818Z,100917.55
2018-02-10T12:53:06.531Z,100906.24
2018-02-10T12:55:33.720Z,100899.09
2018-02-10T12:58:01.681Z,100899.64
2018-02-10T13:00:29.279Z,100898.21
2018-02-10T13:02:56.714Z,100898.36
2018-02-10T13:05:24.180Z,100895.92
2018-02-10T13:07:51.640Z,100896.75
2018-02-10T13:10:19.007Z,100896.55
2018-02-10T13:12:46.623Z,100893.85
2018-02-10T13:15:13.723Z,100885.94
2018-02-10T13:17:41.232Z,100886.73
2018-02-10T13:20:08.697Z,100889.58
2018-02-10T13:22:36.254Z,100875.42
2018-02-10T13:25:03.686Z,100884.23
2018-02-10T13:27:31.062Z,100881.20
2018-02-10T13:29:58.708Z,100877.83
2018-02-10T13:32:26.184Z,100871.38
2018-02-10T13:34:53.620Z,100863.40
2018-02-10T13:37:20.687Z,100853.84
2018-02-10T13:39:48.236Z,100862.98
2018-02-10T13:42:15.680Z,100869.25
2018-02-10T13:44:43.183Z,100869.54
2018-02-10T13:47:10.644Z,100879.00
2018-02-10T13:49:38.363Z,100885.45
2018-02-10T13:52:05.775Z,100895.72
2018-02-10T13:54:33.603Z,100888.89
2018-02-10T13:57:01.215Z,100890.83
2018-02-10T13:59:28.726Z,100899.52
2018-02-10T14:01:56.418Z,100888.64
2018-02-10T14:04:23.743Z,100888.34
2018-02-10T14:06:51.379Z,100889.98
2018-02-10T14:09:18.794Z,100890.60
2018-02-10T14:11:46.644Z,100891.13
2018-02-10T14:14:14.238Z,100886.58
2018-02-10T14:16:41.723Z,100891.37
2018-02-10T14:19:09.381Z,100892.25
2018-02-10T14:21:36.718Z,100888.06
2018-02-10T14:24:04.384Z,100889.45
2018-02-10T14:26:31.731Z,100891.50
2018-02-10T14:28:59.528Z,100893.55
2018-02-10T14:31:26.724Z,100887.20
2018-02-10T14:33:54.591Z,100891.00
2018-02-10T14:36:21.796Z,100885.89
2018-02-10T14:38:49.846Z,100890.58
2018-02-10T14:41:17.725Z,100893.94
2018-02-10T14:43:45.603Z,100894.47
2018-02-10T14:46:13.055Z,100892.43
2018-02-10T14:48:40.629Z,100885.38
2018-02-10T14:51:08.417Z,100878.67
2018-02-10T14:53:35.761Z,100880.95
2018-02-10T14:56:03.384Z,100887.36
2018-02-10T14:58:30.715Z,100888.05
2018-02-10T15:00:58.259Z,100889.70
2018-02-10T15:03:25.660Z,100889.45
2018-02-10T15:05:53.472Z,100886.05
2018-02-10T15:08:20.722Z,100884.83
2018-02-10T15:10:48.573Z,100886.63
2018-02-10T15:13:15.754Z,100890.55
2018-02-10T15:15:43.493Z,100886.06
2018-02-10T15:18:10.710Z,100883.47
2018-02-10T15:20:38.353Z,100884.56
2018-02-10T15:23:05.700Z,100880.60
2018-02-10T15:25:33.457Z,100884.12
2018-02-10T15:28:00.667Z,100883.26
2018-02-10T15:30:28.371Z,100871.17
2018-02-10T15:32:55.707Z,100876.48
2018-02-10T15:35:23.490Z,100873.03
2018-02-10T15:37:50.704Z,100867.41
2018-02-10T15:40:18.414Z,100873.27
2018-02-10T15:42:45.754Z,100869.38
2018-02-10T15:45:13.398Z,100863.87
2018-02-10T15:47:40.700Z,100862.41
2018-02-10T15:50:08.353Z,100862.77
2018-02-10T15:52:35.740Z,100849.11
2018-02-10T15:55:03.475Z,100858.09
2018-02-10T15:57:30.712Z,100851.97
2018-02-10T15:59:58.560Z,100848.75
2018-02-10T16:02:25.671Z,100844.47
2018-02-10T16:04:52.932Z,100843.14
2018-02-10T16:07:20.570Z,100847.79
2018-02-10T16:09:47.687Z,100848.23
2018-02-10T16:12:15.246Z,100844.89
2018-02-10T16:14:42.701Z,100848.71
2018-02-10T16:17:10.221Z,100847.13
2018-02-10T16:19:37.635Z,100847.14
2018-02-10T16:22:04.897Z,100850.67
2018-02-10T16:24:32.536Z,100838.41
2018-02-10T16:26:59.722Z,100837.79
2018-02-10T16:29:27.352Z,100836.97
2018-02-10T16:31:54.721Z,100832.41
2018-02-10T16:34:22.365Z,100837.63
2018-02-10T16:36:49.708Z,100831.17
2018-02-10T16:39:17.400Z,100824.42
2018-02-10T16:41:44.695Z,100818.76
2018-02-10T16:44:12.380Z,100821.23
2018-02-10T16:46:39.729Z,100827.45
2018-02-10T16:49:07.446Z,100821.75
2018-02-10T16:51:34.732Z,100821.75
2018-02-10T16:54:02.354Z,100820.55
2018-02-10T16:56:29.728Z,100822.70
2018-02-10T16:58:57.496Z,100825.16
2018-02-10T17:01:24.687Z,100821.37
2018-02-10T17:03:52.329Z,100813.16
2018-02-10T17:06:19.708Z,100808.95
2018-02-10T17:08:47.515Z,100799.37
2018-02-10T17:11:14.728Z,100797.11
2018-02-10T17:13:42.340Z,100800.60
2018-02-10T17:16:09.701Z,100791.41
2018-02-10T17:18:37.496Z,100784.92
2018-02-10T17:21:04.696Z,100790.00
2018-02-10T17:23:32.188Z,100794.23
2018-02-10T17:25:59.680Z,100784.81
2018-02-10T17:28:26.943Z,100790.72
2018-02-10T17:30:54.573Z,100777.48
2018-02-10T17:33:21.664Z,100772.61
2018-02-10T17:35:49.198Z,100766.26
2018-02-10T17:38:16.577Z,100763.78
2018-02-10T17:40:43.729Z,100753.62
2018-02-10T17:43:11.459Z,100739.14
2018-02-10T17:45:38.734Z,100734.09
2018-02-10T17:48:06.251Z,100729.75
2018-02-10T17:50:33.656Z,100704.42
2018-02-10T17:53:00.916Z,100696.12
2018-02-10T17:55:28.574Z,100689.14
2018-02-10T17:57:55.731Z,100681.75
2018-02-10T18:00:23.478Z,100672.62
2018-02-10T18:02:50.733Z,100669.27
2018-02-10T18:05:18.360Z,100672.10
2018-02-10T18:07:45.718Z,100674.33
2018-02-10T18:10:13.325Z,100677.36
2018-02-10T18:12:40.655Z,100686.16
2018-02-10T18:15:08.441Z,100691.58
2018-02-10T18:17:35.675Z,100683.97
2018-02-10T18:20:02.982Z,100666.52
2018-02-10T18:22:30.591Z,100661.65
2018-02-10T18:24:57.697Z,100640.56
2018-02-10T18:27:25.204Z,100646.07
2018-02-10T18:29:52.627Z,100653.44
2018-02-10T18:32:19.800Z,100654.38
2018-02-10T18:34:47.460Z,100660.33
2018-02-10T18:37:14.709Z,100663.49
2018-02-10T18:39:42.694Z,100673.23
2018-02-10T18:42:10.379Z,100675.69
2018-02-10T18:44:37.689Z,100665.70
2018-02-10T18:47:05.300Z,100677.61
2018-02-10T18:49:32.668Z,100673.03
2018-02-10T18:52:00.437Z,100673.05
2018-02-10T18:54:27.767Z,100679.09
2018-02-10T18:56:55.389Z,100668.31
2018-02-10T18:59:22.752Z,100667.23
2018-02-10T19:01:50.390Z,100663.90
2018-02-10T19:04:17.748Z,100666.30
2018-02-10T19:06:45.353Z,100656.23
2018-02-10T19:09:12.733Z,100647.30
2018-02-10T19:11:40.373Z,100637.74
2018-02-10T19:14:07.725Z,100617.13
2018-02-10T19:16:35.391Z,100622.52
2018-02-10T19:19:02.730Z,100613.89
2018-02-10T19:21:30.402Z,100624.23
2018-02-10T19:23:57.739Z,100616.48
2018-02-10T19:26:25.541Z,100622.36
2018-02-10T19:28:52.762Z,100627.13
2018-02-10T19:31:20.352Z,100625.34
2018-02-10T19:33:47.740Z,100619.53
2018-02-10T19:36:15.522Z,100620.33
2018-02-10T19:38:42.740Z,100626.14
2018-02-10T19:41:10.453Z,100619.00
2018-02-10T19:43:37.716Z,100614.74
2018-02-10T19:46:05.357Z,100602.61
2018-02-10T19:48:32.684Z,100599.66
2018-02-10T19:51:00.532Z,100597.59
2018-02-10T19:53:27.715Z,100594.11
2018-02-10T19:55:55.493Z,100592.57
2018-02-10T19:58:22.724Z,100577.23
2018-02-10T20:00:50.185Z,100573.70
2018-02-10T20:03:17.657Z,100571.92
2018-02-10T20:05:45.439Z,100572.90
2018-02-10T20:08:12.651Z,100552.25
2018-02-10T20:10:40.224Z,100547.23
2018-02-10T20:13:07.651Z,100551.45
2018-02-10T20:15:34.965Z,100537.69
2018-02-10T20:18:02.367Z,100540.48
2018-02-10T20:20:29.675Z,100531.22
2018-02-10T20:22:57.213Z,100518.27
2018-02-10T20:25:24.664Z,100506.77
2018-02-10T20:27:52.191Z,100495.11
2018-02-10T20:30:19.615Z,100490.07
2018-02-10T20:32:46.908Z,100490.98
2018-02-10T20:35:14.594Z,100502.11
2018-02-10T20:37:41.696Z,100504.50
2018-02-10T20:40:09.174Z,100499.70
2018-02-10T20:42:36.683Z,100507.73
2018-02-10T20:45:04.192Z,100507.19
2018-02-10T20:47:31.665Z,100512.02
2018-02-10T20:49:59.390Z,100499.38
2018-02-10T20:52:26.731Z,100509.07
2018-02-10T20:54:54.336Z,100508.55
2018-02-10T20:57:23.550Z,100511.87
2018-02-10T20:59:50.741Z,100514.33
2018-02-10T21:02:18.394Z,100513.62
2018-02-10T21:04:45.655Z,100511.28
2018-02-10T21:07:13.471Z,100508.21
2018-02-10T21:09:40.711Z,100499.23
2018-02-10T21:12:08.722Z,100496.20
2018-02-10T21:14:36.417Z,100498.88
2018-02-10T21:17:03.696Z,100492.50
2018-02-10T21:19:31.339Z,100500.34
2018-02-10T21:21:58.684Z,100507.70
2018-02-10T21:24:25.909Z,100508.39
2018-02-10T21:26:53.539Z,100500.09
2018-02-10T21:29:20.687Z,100496.18
2018-02-10T21:31:48.445Z,100502.73
2018-02-10T21:34:15.677Z,100512.45
2018-02-10T21:36:43.031Z,100521.13
2018-02-10T21:39:10.538Z,100503.75
2018-02-10T21:41:37.719Z,100497.44
2018-02-10T21:44:05.343Z,100499.72
2018-02-10T21:46:32.730Z,100500.55
2018-02-10T21:49:00.446Z,100486.24
2018-02-10T21:51:27.740Z,100470.73
2018-02-10T21:53:55.349Z,100467.98
2018-02-10T21:56:22.743Z,100476.02
2018-02-10T21:58:50.481Z,100477.02
2018-02-10T22:01:17.778Z,100483.12
2018-02-10T22:03:45.544Z,100484.94
2018-02-10T22:06:12.766Z,100488.91
2018-02-10T22:08:40.466Z,100490.02
2018-02-10T22:11:07.721Z,100476.64
2018-02-10T22:13:35.522Z,100473.81
2018-02-10T22:16:02.759Z,100478.73
2018-02-10T22:18:30.639Z,100463.84
2018-02-10T22:20:57.951Z,100455.41
2018-02-10T22:23:25.638Z,100447.05
2018-02-10T22:25:52.903Z,100445.78
2018-02-10T22:28:20.715Z,100442.64
2018-02-10T22:30:48.498Z,100437.27
2018-02-10T22:33:15.780Z,100424.70
2018-02-10T22:35:43.692Z,100421.70
2018-02-10T22:38:11.469Z,100414.50
2018-02-10T22:40:38.716Z,100413.55
2018-02-10T22:43:06.494Z,100408.53
2018-02-10T22:45:33.752Z,100407.17
2018-02-10T22:48:01.480Z,100396.95
2018-02-10T22:50:28.665Z,100392.08
2018-02-10T22:52:56.445Z,100395.66
2018-02-10T22:55:23.712Z,100393.11
2018-02-10T22:57:51.450Z,100391.98
2018-02-10T23:00:18.698Z,100397.83
2018-02-10T23:02:46.486Z,100391.28
2018-02-10T23:05:13.733Z,100392.06
2018-02-10T23:07:41.378Z,100394.34
2018-02-10T23:10:08.726Z,100382.43
2018-02-10T23:12:36.416Z,100386.86
2018-02-10T23:15:03.749Z,100383.22
2018-02-10T23:17:31.504Z,100384.97
2018-02-10T23:19:58.966Z,100378.52
2018-02-10T23:22:26.585Z,100369.25
2018-02-10T23:24:53.754Z,100358.48
2018-02-10T23:27:21.554Z,100340.80
2018-02-10T23:29:48.703Z,100330.48
2018-02-10T23:32:16.513Z,100317.77
2018-02-10T23:34:43.754Z,100311.05
2018-02-10T23:37:11.509Z,100295.52
2018-02-10T23:39:38.708Z,100303.28
2018-02-10T23:42:06.425Z,100304.98
2018-02-10T23:44:33.756Z,100295.11
2018-02-10T23:47:01.438Z,100290.41
2018-02-10T23:49:28.741Z,100289.41
2018-02-10T23:51:56.465Z,100283.80
2018-02-10T23:54:23.764Z,100280.94
2018-02-10T23:56:51.532Z,100282.13
2018-02-10T23:59:18.757Z,100290.72
